sensor_id;sensor_type;location;lat;lon;timestamp;pressure;altitude;pressure_sealevel;temperature;humidity
23473;BME280;11909;52.516;13.564;2023-02-13T00:00:45;103030.88;;;6.74;100.00
23473;BME280;11909;52.516;13.564;2023-02-13T00:03:13;103032.16;;;6.79;100.00
23473;BME280;11909;52.516;13.564;2023-02-13T00:05:41;103032.97;;;6.79;100.00
23473;BME280;11909;52.516;13.564;2023-02-13T00:08:09;103026.25;;;6.75;100.00
23473;BME280;11909;52.516;13.564;2023-02-13T00:10:37;103030.00;;;6.74;100.00
23473;BME280;11909;52.516;13.564;2023-02-13T00:13:06;103030.88;;;6.74;100.00
23473;BME280;11909;52.516;13.564;2023-02-13T00:15:33;103030.25;;;6.79;100.00
23473;BME280;11909;52.516;13.564;2023-02-13T00:18:02;103029.22;;;6.80;100.00
23473;BME280;11909;52.516;13.564;2023-02-13T00:20:30;103035.69;;;6.72;100.00
23473;BME280;11909;52.516;13.564;2023-02-13T00:22:57;103025.53;;;6.66;100.00
23473;BME280;11909;52.516;13.564;2023-02-13T00:25:25;103023.03;;;6.65;100.00
23473;BME280;11909;52.516;13.564;2023-02-13T00:27:53;103035.22;;;6.69;100.00
23473;BME280;11909;52.516;13.564;2023-02-13T00:30:22;103031.63;;;6.68;100.00
23473;BME280;11909;52.516;13.564;2023-02-13T00:32:50;103032.91;;;6.66;100.00
23473;BME280;11909;52.516;13.564;2023-02-13T00:35:18;103040.84;;;6.60;100.00
23473;BME280;11909;52.516;13.564;2023-02-13T00:37:45;103034.72;;;6.58;100.00
23473;BME280;11909;52.516;13.564;2023-02-13T00:40:13;103038.09;;;6.60;100.00
23473;BME280;11909;52.516;13.564;2023-02-13T00:42:41;103038.50;;;6.57;100.00
23473;BME280;11909;52.516;13.564;2023-02-13T00:45:08;103038.03;;;6.54;100.00
23473;BME280;11909;52.516;13.564;2023-02-13T00:47:38;103038.63;;;6.49;100.00
23473;BME280;11909;52.516;13.564;2023-02-13T00:50:06;103036.13;;;6.48;100.00
23473;BME280;11909;52.516;13.564;2023-02-13T00:52:33;103039.03;;;6.46;100.00
23473;BME280;11909;52.516;13.564;2023-02-13T00:55:01;103039.47;;;6.50;100.00
23473;BME280;11909;52.516;13.564;2023-02-13T00:57:29;103036.13;;;6.48;100.00
23473;BME280;11909;52.516;13.564;2023-02-13T00:59:57;103032.97;;;6.51;100.00
23473;BME280;11909;52.516;13.564;2023-02-13T01:02:25;103033.81;;;6.51;100.00
23473;BME280;11909;52.516;13.564;2023-02-13T01:04:54;103040.56;;;6.55;100.00
23473;BME280;11909;52.516;13.564;2023-02-13T01:07:21;103043.91;;;6.51;100.00
23473;BME280;11909;52.516;13.564;2023-02-13T01:09:49;103040.97;;;6.52;100.00
23473;BME280;11909;52.516;13.564;2023-02-13T01:12:17;103045.97;;;6.49;100.00
23473;BME280;11909;52.516;13.564;2023-02-13T01:14:45;103051.81;;;6.45;100.00
23473;BME280;11909;52.516;13.564;2023-02-13T01:17:12;103049.13;;;6.52;100.00
23473;BME280;11909;52.516;13.564;2023-02-13T01:19:40;103053.13;;;6.50;100.00
23473;BME280;11909;52.516;13.564;2023-02-13T01:22:09;103045.53;;;6.45;100.00
23473;BME280;11909;52.516;13.564;2023-02-13T01:24:37;103043.38;;;6.40;100.00
23473;BME280;11909;52.516;13.564;2023-02-13T01:27:04;103044.81;;;6.36;100.00
23473;BME280;11909;52.516;13.564;2023-02-13T01:29:32;103045.28;;;6.40;100.00
23473;BME280;11909;52.516;13.564;2023-02-13T01:32:00;103047.13;;;6.39;100.00
23473;BME280;11909;52.516;13.564;2023-02-13T01:34:30;103046.50;;;6.37;100.00
23473;BME280;11909;52.516;13.564;2023-02-13T01:36:58;103041.03;;;6.37;100.00
23473;BME280;11909;52.516;13.564;2023-02-13T01:39:27;103046.69;;;6.36;100.00
23473;BME280;11909;52.516;13.564;2023-02-13T01:41:55;103049.88;;;6.39;100.00
23473;BME280;11909;52.516;13.564;2023-02-13T01:48:05;103033.91;;;6.36;100.00
23473;BME280;11909;52.516;13.564;2023-02-13T01:50:37;103043.59;;;6.39;100.00
23473;BME280;11909;52.516;13.564;2023-02-13T01:53:08;103049.69;;;6.41;100.00
23473;BME280;11909;52.516;13.564;2023-02-13T01:55:43;103042.53;;;6.40;100.00
23473;BME280;11909;52.516;13.564;2023-02-13T01:58:16;103041.03;;;6.37;100.00
23473;BME280;11909;52.516;13.564;2023-02-13T02:00:45;103046.56;;;6.44;100.00
23473;BME280;11909;52.516;13.564;2023-02-13T02:03:20;103044.22;;;6.41;100.00
23473;BME280;11909;52.516;13.564;2023-02-13T02:09:12;103044.63;;;6.38;100.00
23473;BME280;11909;52.516;13.564;2023-02-13T02:15:23;103039.81;;;6.40;100.00
23473;BME280;11909;52.516;13.564;2023-02-13T02:18:13;103043.38;;;6.40;100.00
23473;BME280;11909;52.516;13.564;2023-02-13T02:21:29;103045.66;;;6.37;100.00
23473;BME280;11909;52.516;13.564;2023-02-13T02:24:46;103046.31;;;6.39;100.00
23473;BME280;11909;52.516;13.564;2023-02-13T02:27:39;103051.75;;;6.39;100.00
23473;BME280;11909;52.516;13.564;2023-02-13T02:33:33;103046.94;;;6.41;100.00
23473;BME280;11909;52.516;13.564;2023-02-13T02:36:20;103047.75;;;6.35;100.00
23473;BME280;11909;52.516;13.564;2023-02-13T02:39:02;103056.94;;;6.34;100.00
23473;BME280;11909;52.516;13.564;2023-02-13T02:41:43;103054.22;;;6.34;100.00
23473;BME280;11909;52.516;13.564;2023-02-13T02:44:30;103056.28;;;6.31;100.00
23473;BME280;11909;52.516;13.564;2023-02-13T02:47:07;103059.88;;;6.32;100.00
23473;BME280;11909;52.516;13.564;2023-02-13T02:50:03;103057.78;;;6.34;100.00
23473;BME280;11909;52.516;13.564;2023-02-13T02:52:38;103061.75;;;6.31;100.00
23473;BME280;11909;52.516;13.564;2023-02-13T02:55:15;103059.41;;;6.28;100.00
23473;BME280;11909;52.516;13.564;2023-02-13T02:57:47;103056.91;;;6.27;100.00
23473;BME280;11909;52.516;13.564;2023-02-13T03:00:36;103055.22;;;6.26;100.00
23473;BME280;11909;52.516;13.564;2023-02-13T03:03:24;103054.56;;;6.24;100.00
23473;BME280;11909;52.516;13.564;2023-02-13T03:06:15;103049.09;;;6.24;100.00
23473;BME280;11909;52.516;13.564;2023-02-13T03:08:46;103058.69;;;6.20;100.00
23473;BME280;11909;52.516;13.564;2023-02-13T03:11:37;103049.03;;;6.17;100.00
23473;BME280;11909;52.516;13.564;2023-02-13T03:14:24;103052.41;;;6.19;100.00
23473;BME280;11909;52.516;13.564;2023-02-13T03:16:54;103054.75;;;6.22;100.00
23473;BME280;11909;52.516;13.564;2023-02-13T03:19:52;103050.13;;;6.23;100.00
23473;BME280;11909;52.516;13.564;2023-02-13T03:22:46;103052.66;;;6.24;100.00
23473;BME280;11909;52.516;13.564;2023-02-13T03:25:22;103054.34;;;6.25;100.00
23473;BME280;11909;52.516;13.564;2023-02-13T03:28:08;103057.28;;;6.24;100.00
23473;BME280;11909;52.516;13.564;2023-02-13T03:31:00;103060.19;;;6.22;100.00
23473;BME280;11909;52.516;13.564;2023-02-13T03:33:42;103061.22;;;6.21;100.00
23473;BME280;11909;52.516;13.564;2023-02-13T03:36:24;103066.88;;;6.20;100.00
23473;BME280;11909;52.516;13.564;2023-02-13T03:39:18;103059.53;;;6.20;100.00
23473;BME280;11909;52.516;13.564;2023-02-13T03:41:53;103053.19;;;6.13;100.00
23473;BME280;11909;52.516;13.564;2023-02-13T03:44:27;103065.13;;;6.12;100.00
23473;BME280;11909;52.516;13.564;2023-02-13T03:46:58;103056.22;;;6.03;100.00
23473;BME280;11909;52.516;13.564;2023-02-13T03:49:30;103056.22;;;6.03;100.00
23473;BME280;11909;52.516;13.564;2023-02-13T03:52:22;103048.09;;;6.10;100.00
23473;BME280;11909;52.516;13.564;2023-02-13T03:54:55;103056.28;;;6.10;100.00
23473;BME280;11909;52.516;13.564;2023-02-13T03:57:42;103059.22;;;6.08;100.00
23473;BME280;11909;52.516;13.564;2023-02-13T04:00:32;103056.28;;;6.10;100.00
23473;BME280;11909;52.516;13.564;2023-02-13T04:03:09;103060.97;;;6.16;100.00
23473;BME280;11909;52.516;13.564;2023-02-13T04:05:42;103051.09;;;6.15;100.00
23473;BME280;11909;52.516;13.564;2023-02-13T04:08:11;103053.84;;;6.15;100.00
23473;BME280;11909;52.516;13.564;2023-02-13T04:10:47;103060.13;;;6.15;97.59
23473;BME280;11909;52.516;13.564;2023-02-13T04:13:20;103056.19;;;6.18;97.40
23473;BME280;11909;52.516;13.564;2023-02-13T04:15:52;103056.28;;;6.10;96.94
23473;BME280;11909;52.516;13.564;2023-02-13T04:18:24;103054.97;;;6.06;98.14
23473;BME280;11909;52.516;13.564;2023-02-13T04:20:53;103051.59;;;6.03;98.82
23473;BME280;11909;52.516;13.564;2023-02-13T04:23:21;103054.41;;;6.10;98.36
23473;BME280;11909;52.516;13.564;2023-02-13T04:25:53;103054.53;;;6.02;98.89
23473;BME280;11909;52.516;13.564;2023-02-13T04:28:21;103050.06;;;6.16;99.24
23473;BME280;11909;52.516;13.564;2023-02-13T04:30:49;103050.25;;;6.14;99.16
23473;BME280;11909;52.516;13.564;2023-02-13T04:33:17;103044.94;;;6.06;99.85
23473;BME280;11909;52.516;13.564;2023-02-13T04:35:45;103046.81;;;6.06;100.00
23473;BME280;11909;52.516;13.564;2023-02-13T04:38:13;103047.44;;;6.08;100.00
23473;BME280;11909;52.516;13.564;2023-02-13T04:40:40;103044.69;;;6.01;100.00
23473;BME280;11909;52.516;13.564;2023-02-13T04:43:09;103042.38;;;6.05;100.00
23473;BME280;11909;52.516;13.564;2023-02-13T04:45:37;103042.78;;;6.01;100.00
23473;BME280;11909;52.516;13.564;2023-02-13T04:48:05;103031.09;;;6.08;100.00
23473;BME280;11909;52.516;13.564;2023-02-13T04:50:33;103021.50;;;6.12;99.66
23473;BME280;11909;52.516;13.564;2023-02-13T04:53:00;103023.78;;;6.08;99.92
23473;BME280;11909;52.516;13.564;2023-02-13T04:55:28;103026.28;;;6.10;99.73
23473;BME280;11909;52.516;13.564;2023-02-13T04:57:56;103028.91;;;6.18;99.21
23473;BME280;11909;52.516;13.564;2023-02-13T05:00:27;103033.00;;;6.07;99.75
23473;BME280;11909;52.516;13.564;2023-02-13T05:02:59;103038.44;;;6.07;99.36
23473;BME280;11909;52.516;13.564;2023-02-13T05:05:27;103039.88;;;6.03;98.49
23473;BME280;11909;52.516;13.564;2023-02-13T05:07:55;103034.78;;;6.00;99.06
23473;BME280;11909;52.516;13.564;2023-02-13T05:10:22;103051.13;;;6.00;99.58
23473;BME280;11909;52.516;13.564;2023-02-13T05:12:50;103039.88;;;6.03;99.04
23473;BME280;11909;52.516;13.564;2023-02-13T05:15:18;103046.81;;;6.06;98.86
23473;BME280;11909;52.516;13.564;2023-02-13T05:17:47;103039.66;;;6.05;99.69
23473;BME280;11909;52.516;13.564;2023-02-13T05:20:15;103052.47;;;6.04;99.84
23473;BME280;11909;52.516;13.564;2023-02-13T05:22:43;103046.16;;;6.03;100.00
23473;BME280;11909;52.516;13.564;2023-02-13T05:25:29;103052.25;;;6.06;99.93
23473;BME280;11909;52.516;13.564;2023-02-13T05:27:56;103046.63;;;6.07;100.00
23473;BME280;11909;52.516;13.564;2023-02-13T05:30:25;103040.13;;;6.08;100.00
23473;BME280;11909;52.516;13.564;2023-02-13T05:32:53;103041.81;;;6.09;100.00
23473;BME280;11909;52.516;13.564;2023-02-13T05:35:22;103039.16;;;6.16;99.90
23473;BME280;11909;52.516;13.564;2023-02-13T05:37:50;103048.38;;;6.15;99.75
23473;BME280;11909;52.516;13.564;2023-02-13T05:40:18;103044.94;;;6.06;100.00
23473;BME280;11909;52.516;13.564;2023-02-13T05:42:48;103049.09;;;6.02;100.00
23473;BME280;11909;52.516;13.564;2023-02-13T05:45:15;103032.34;;;6.05;100.00
23473;BME280;11909;52.516;13.564;2023-02-13T05:47:43;103045.31;;;6.03;100.00
23473;BME280;11909;52.516;13.564;2023-02-13T05:50:12;103047.84;;;6.05;99.76
23473;BME280;11909;52.516;13.564;2023-02-13T05:52:40;103060.13;;;6.00;99.04
23473;BME280;11909;52.516;13.564;2023-02-13T05:55:07;103071.03;;;6.00;98.16
23473;BME280;11909;52.516;13.564;2023-02-13T05:57:35;103063.38;;;6.04;97.74
23473;BME280;11909;52.516;13.564;2023-02-13T06:00:03;103072.94;;;6.15;96.13
23473;BME280;11909;52.516;13.564;2023-02-13T06:02:32;103073.50;;;6.10;96.21
23473;BME280;11909;52.516;13.564;2023-02-13T06:04:59;103076.78;;;6.06;96.03
23473;BME280;11909;52.516;13.564;2023-02-13T06:07:28;103080.75;;;6.03;96.87
23473;BME280;11909;52.516;13.564;2023-02-13T06:09:56;103071.53;;;6.04;96.77
23473;BME280;11909;52.516;13.564;2023-02-13T06:12:24;103086.56;;;6.00;97.23
23473;BME280;11909;52.516;13.564;2023-02-13T06:14:52;103082.84;;;6.01;97.35
23473;BME280;11909;52.516;13.564;2023-02-13T06:17:20;103085.22;;;6.11;95.46
23473;BME280;11909;52.516;13.564;2023-02-13T06:19:47;103089.38;;;6.07;95.63
23473;BME280;11909;52.516;13.564;2023-02-13T06:22:15;103086.22;;;6.03;96.08
23473;BME280;11909;52.516;13.564;2023-02-13T06:24:44;103090.13;;;6.00;96.84
23473;BME280;11909;52.516;13.564;2023-02-13T06:27:12;103089.59;;;6.05;96.05
23473;BME280;11909;52.516;13.564;2023-02-13T06:29:40;103085.34;;;6.02;96.38
23473;BME280;11909;52.516;13.564;2023-02-13T06:32:07;103077.38;;;6.01;96.13
23473;BME280;11909;52.516;13.564;2023-02-13T06:34:35;103084.66;;;6.00;96.07
23473;BME280;11909;52.516;13.564;2023-02-13T06:37:03;103084.03;;;5.98;96.17
23473;BME280;11909;52.516;13.564;2023-02-13T06:39:30;103079.22;;;6.00;96.28
23473;BME280;11909;52.516;13.564;2023-02-13T06:41:59;103082.13;;;5.99;96.54
23473;BME280;11909;52.516;13.564;2023-02-13T06:44:27;103095.44;;;6.02;96.38
23473;BME280;11909;52.516;13.564;2023-02-13T06:46:55;103094.84;;;6.07;95.65
23473;BME280;11909;52.516;13.564;2023-02-13T06:49:22;103092.84;;;6.00;96.05
23473;BME280;11909;52.516;13.564;2023-02-13T06:51:50;103103.00;;;6.07;96.14
23473;BME280;11909;52.516;13.564;2023-02-13T06:54:18;103106.03;;;6.12;95.30
23473;BME280;11909;52.516;13.564;2023-02-13T06:56:45;103100.19;;;6.15;95.05
23473;BME280;11909;52.516;13.564;2023-02-13T06:59:14;103113.81;;;6.15;94.77
23473;BME280;11909;52.516;13.564;2023-02-13T07:01:42;103115.22;;;6.11;94.94
23473;BME280;11909;52.516;13.564;2023-02-13T07:04:10;103115.22;;;6.11;94.82
23473;BME280;11909;52.516;13.564;2023-02-13T07:06:38;103114.00;;;6.13;94.63
23473;BME280;11909;52.516;13.564;2023-02-13T07:09:05;103115.44;;;6.09;95.19
23473;BME280;11909;52.516;13.564;2023-02-13T07:11:33;103114.94;;;6.06;95.21
23473;BME280;11909;52.516;13.564;2023-02-13T07:14:02;103115.16;;;6.04;95.92
23473;BME280;11909;52.516;13.564;2023-02-13T07:16:31;103109.97;;;6.09;95.68
23473;BME280;11909;52.516;13.564;2023-02-13T07:18:59;103116.63;;;6.07;95.76
23473;BME280;11909;52.516;13.564;2023-02-13T07:21:27;103120.63;;;6.04;95.97
23473;BME280;11909;52.516;13.564;2023-02-13T07:23:55;103114.31;;;6.03;96.28
23473;BME280;11909;52.516;13.564;2023-02-13T07:26:22;103117.03;;;6.03;96.48
23473;BME280;11909;52.516;13.564;2023-02-13T07:28:52;103120.63;;;6.04;96.92
23473;BME280;11909;52.516;13.564;2023-02-13T07:31:37;103119.56;;;6.05;96.88
23473;BME280;11909;52.516;13.564;2023-02-13T07:34:05;103124.81;;;6.07;96.84
23473;BME280;11909;52.516;13.564;2023-02-13T07:36:33;103124.66;;;6.08;96.79
23473;BME280;11909;52.516;13.564;2023-02-13T07:39:01;103128.50;;;6.14;96.00
23473;BME280;11909;52.516;13.564;2023-02-13T07:41:28;103127.84;;;6.12;96.29
23473;BME280;11909;52.516;13.564;2023-02-13T07:43:56;103124.91;;;6.13;96.06
23473;BME280;11909;52.516;13.564;2023-02-13T07:46:24;103128.84;;;6.11;95.98
23473;BME280;11909;52.516;13.564;2023-02-13T07:48:53;103127.16;;;6.10;96.22
23473;BME280;11909;52.516;13.564;2023-02-13T07:51:21;103122.66;;;6.17;95.78
23473;BME280;11909;52.516;13.564;2023-02-13T07:53:51;103132.13;;;6.21;95.29
23473;BME280;11909;52.516;13.564;2023-02-13T07:56:18;103134.38;;;6.17;95.79
23473;BME280;11909;52.516;13.564;2023-02-13T07:58:46;103137.13;;;6.17;95.81
23473;BME280;11909;52.516;13.564;2023-02-13T08:01:15;103138.22;;;6.23;95.08
23473;BME280;11909;52.516;13.564;2023-02-13T08:03:47;103130.53;;;6.27;94.92
23473;BME280;11909;52.516;13.564;2023-02-13T08:06:19;103142.19;;;6.21;95.56
23473;BME280;11909;52.516;13.564;2023-02-13T08:08:46;103140.88;;;6.16;95.72
23473;BME280;11909;52.516;13.564;2023-02-13T08:11:34;103141.63;;;6.25;95.56
23473;BME280;11909;52.516;13.564;2023-02-13T08:14:20;103140.00;;;6.31;95.16
23473;BME280;11909;52.516;13.564;2023-02-13T08:16:48;103143.94;;;6.28;94.88
23473;BME280;11909;52.516;13.564;2023-02-13T08:19:16;103142.09;;;6.29;94.75
23473;BME280;11909;52.516;13.564;2023-02-13T08:21:45;103134.09;;;6.27;95.36
23473;BME280;11909;52.516;13.564;2023-02-13T08:24:13;103138.06;;;6.25;95.86
23473;BME280;11909;52.516;13.564;2023-02-13T08:26:40;103138.19;;;6.38;95.11
23473;BME280;11909;52.516;13.564;2023-02-13T08:29:08;103131.31;;;6.42;94.98
23473;BME280;11909;52.516;13.564;2023-02-13T08:31:37;103121.38;;;6.35;95.54
23473;BME280;11909;52.516;13.564;2023-02-13T08:34:04;103131.03;;;6.37;95.61
23473;BME280;11909;52.516;13.564;2023-02-13T08:36:32;103137.16;;;6.39;95.11
23473;BME280;11909;52.516;13.564;2023-02-13T08:39:01;103136.03;;;6.34;95.93
23473;BME280;11909;52.516;13.564;2023-02-13T08:41:29;103135.03;;;6.35;96.02
23473;BME280;11909;52.516;13.564;2023-02-13T08:43:57;103124.56;;;6.38;96.57
23473;BME280;11909;52.516;13.564;2023-02-13T08:46:24;103130.22;;;6.37;96.54
23473;BME280;11909;52.516;13.564;2023-02-13T08:48:53;103132.28;;;6.35;96.41
23473;BME280;11909;52.516;13.564;2023-02-13T08:51:21;103123.06;;;6.36;96.54
23473;BME280;11909;52.516;13.564;2023-02-13T08:53:48;103133.38;;;6.40;96.52
23473;BME280;11909;52.516;13.564;2023-02-13T08:56:17;103123.00;;;6.51;95.75
23473;BME280;11909;52.516;13.564;2023-02-13T08:58:47;103122.28;;;6.64;95.17
23473;BME280;11909;52.516;13.564;2023-02-13T09:01:15;103130.16;;;6.52;95.77
23473;BME280;11909;52.516;13.564;2023-02-13T09:03:43;103130.72;;;6.47;96.23
23473;BME280;11909;52.516;13.564;2023-02-13T09:06:11;103134.56;;;6.53;97.09
23473;BME280;11909;52.516;13.564;2023-02-13T09:08:38;103133.53;;;6.54;97.24
23473;BME280;11909;52.516;13.564;2023-02-13T09:11:06;103125.53;;;6.52;97.55
23473;BME280;11909;52.516;13.564;2023-02-13T09:13:36;103128.53;;;6.57;97.11
23473;BME280;11909;52.516;13.564;2023-02-13T09:16:05;103129.56;;;6.56;96.92
23473;BME280;11909;52.516;13.564;2023-02-13T09:18:33;103125.53;;;6.52;97.70
23473;BME280;11909;52.516;13.564;2023-02-13T09:21:03;103128.47;;;6.51;98.15
23473;BME280;11909;52.516;13.564;2023-02-13T09:23:31;103130.97;;;6.52;98.02
23473;BME280;11909;52.516;13.564;2023-02-13T09:26:00;103134.81;;;6.58;98.14
23473;BME280;11909;52.516;13.564;2023-02-13T09:28:28;103147.81;;;6.56;97.98
23473;BME280;11909;52.516;13.564;2023-02-13T09:30:58;103141.50;;;6.55;97.96
23473;BME280;11909;52.516;13.564;2023-02-13T09:33:26;103142.19;;;6.57;98.12
23473;BME280;11909;52.516;13.564;2023-02-13T09:35:53;103144.88;;;6.79;97.23
23473;BME280;11909;52.516;13.564;2023-02-13T09:38:22;103147.63;;;6.79;97.77
23473;BME280;11909;52.516;13.564;2023-02-13T09:40:53;103140.16;;;6.66;98.79
23473;BME280;11909;52.516;13.564;2023-02-13T09:43:26;103138.66;;;6.64;100.00
23473;BME280;11909;52.516;13.564;2023-02-13T09:45:59;103144.94;;;6.64;99.89
23473;BME280;11909;52.516;13.564;2023-02-13T09:48:30;103133.59;;;6.60;100.00
23473;BME280;11909;52.516;13.564;2023-02-13T09:51:00;103129.84;;;6.62;100.00
23473;BME280;11909;52.516;13.564;2023-02-13T09:53:28;103136.19;;;6.69;100.00
23473;BME280;11909;52.516;13.564;2023-02-13T09:56:04;103136.91;;;6.56;100.00
23473;BME280;11909;52.516;13.564;2023-02-13T09:58:39;103114.13;;;6.64;100.00
23473;BME280;11909;52.516;13.564;2023-02-13T10:01:20;103131.38;;;6.71;100.00
23473;BME280;11909;52.516;13.564;2023-02-13T10:03:57;103119.31;;;6.58;100.00
23473;BME280;11909;52.516;13.564;2023-02-13T10:06:31;103118.84;;;6.55;100.00
23473;BME280;11909;52.516;13.564;2023-02-13T10:09:10;103123.41;;;6.48;100.00
23473;BME280;11909;52.516;13.564;2023-02-13T10:14:53;103128.66;;;6.49;100.00
23473;BME280;11909;52.516;13.564;2023-02-13T10:17:29;103125.28;;;6.47;100.00
23473;BME280;11909;52.516;13.564;2023-02-13T10:20:02;103127.19;;;6.47;100.00
23473;BME280;11909;52.516;13.564;2023-02-13T10:22:35;103125.44;;;6.45;100.00
23473;BME280;11909;52.516;13.564;2023-02-13T10:25:10;103113.78;;;6.52;100.00
23473;BME280;11909;52.516;13.564;2023-02-13T10:27:41;103112.50;;;6.48;100.00
23473;BME280;11909;52.516;13.564;2023-02-13T10:30:15;103112.84;;;6.44;100.00
23473;BME280;11909;52.516;13.564;2023-02-13T10:32:51;103106.19;;;6.47;100.00
23473;BME280;11909;52.516;13.564;2023-02-13T10:35:37;103107.28;;;6.53;100.00
23473;BME280;11909;52.516;13.564;2023-02-13T10:38:13;103113.66;;;6.60;100.00
23473;BME280;11909;52.516;13.564;2023-02-13T10:40:52;103109.16;;;6.52;100.00
23473;BME280;11909;52.516;13.564;2023-02-13T10:43:27;103106.81;;;6.49;100.00
23473;BME280;11909;52.516;13.564;2023-02-13T10:46:06;103104.50;;;6.46;100.00
23473;BME280;11909;52.516;13.564;2023-02-13T10:49:09;103102.63;;;6.47;100.00
23473;BME280;11909;52.516;13.564;2023-02-13T10:51:46;103093.19;;;6.49;100.00
23473;BME280;11909;52.516;13.564;2023-02-13T10:54:39;103088.63;;;6.56;100.00
23473;BME280;11909;52.516;13.564;2023-02-13T10:57:19;103084.44;;;6.54;100.00
23473;BME280;11909;52.516;13.564;2023-02-13T11:00:03;103091.56;;;6.55;100.00
23473;BME280;11909;52.516;13.564;2023-02-13T11:02:32;103081.13;;;6.58;100.00
23473;BME280;11909;52.516;13.564;2023-02-13T11:05:13;103092.28;;;6.64;100.00
23473;BME280;11909;52.516;13.564;2023-02-13T11:07:42;103085.53;;;6.59;100.00
23473;BME280;11909;52.516;13.564;2023-02-13T11:10:16;103089.66;;;6.55;100.00
23473;BME280;11909;52.516;13.564;2023-02-13T11:12:45;103082.00;;;6.66;100.00
23473;BME280;11909;52.516;13.564;2023-02-13T11:15:21;103078.81;;;6.62;100.00
23473;BME280;11909;52.516;13.564;2023-02-13T11:17:52;103076.09;;;6.62;100.00
23473;BME280;11909;52.516;13.564;2023-02-13T11:20:36;103071.69;;;6.61;100.00
23473;BME280;11909;52.516;13.564;2023-02-13T11:23:33;103085.84;;;6.71;100.00
23473;BME280;11909;52.516;13.564;2023-02-13T11:26:03;103084.16;;;6.70;100.00
23473;BME280;11909;52.516;13.564;2023-02-13T11:28:36;103085.38;;;6.68;100.00
23473;BME280;11909;52.516;13.564;2023-02-13T11:31:13;103075.91;;;6.64;100.00
23473;BME280;11909;52.516;13.564;2023-02-13T11:33:41;103075.25;;;6.62;100.00
23473;BME280;11909;52.516;13.564;2023-02-13T11:36:13;103079.75;;;6.69;100.00
23473;BME280;11909;52.516;13.564;2023-02-13T11:38:41;103080.56;;;6.70;100.00
23473;BME280;11909;52.516;13.564;2023-02-13T11:41:12;103081.78;;;6.67;100.00
23473;BME280;11909;52.516;13.564;2023-02-13T11:43:43;103077.38;;;6.66;100.00
23473;BME280;11909;52.516;13.564;2023-02-13T11:46:17;103079.75;;;6.69;100.00
23473;BME280;11909;52.516;13.564;2023-02-13T11:48:56;103070.88;;;6.67;100.00
23473;BME280;11909;52.516;13.564;2023-02-13T11:51:36;103068.38;;;6.66;100.00
23473;BME280;11909;52.516;13.564;2023-02-13T11:54:05;103065.19;;;6.62;100.00
23473;BME280;11909;52.516;13.564;2023-02-13T11:56:47;103066.28;;;6.68;100.00
23473;BME280;11909;52.516;13.564;2023-02-13T11:59:31;103063.16;;;6.71;100.00
23473;BME280;11909;52.516;13.564;2023-02-13T12:02:12;103065.31;;;6.76;100.00
23473;BME280;11909;52.516;13.564;2023-02-13T12:04:40;103064.03;;;6.78;100.00
23473;BME280;11909;52.516;13.564;2023-02-13T12:07:16;103066.44;;;6.88;100.00
23473;BME280;11909;52.516;13.564;2023-02-13T12:09:47;103069.13;;;6.81;100.00
23473;BME280;11909;52.516;13.564;2023-02-13T12:12:18;103072.94;;;6.87;100.00
23473;BME280;11909;52.516;13.564;2023-02-13T12:14:48;103079.91;;;6.89;100.00
23473;BME280;11909;52.516;13.564;2023-02-13T12:17:19;103081.53;;;6.84;99.90
23473;BME280;11909;52.516;13.564;2023-02-13T12:19:57;103074.78;;;6.80;100.00
23473;BME280;11909;52.516;13.564;2023-02-13T12:22:31;103083.16;;;6.78;98.60
23473;BME280;11909;52.516;13.564;2023-02-13T12:28:11;103092.03;;;6.87;95.57
23473;BME280;11909;52.516;13.564;2023-02-13T12:31:09;103088.59;;;6.78;94.68
23473;BME280;11909;52.516;13.564;2023-02-13T12:33:57;103081.88;;;6.74;95.96
23473;BME280;11909;52.516;13.564;2023-02-13T12:36:35;103075.75;;;6.72;97.17
23473;BME280;11909;52.516;13.564;2023-02-13T12:39:23;103083.16;;;6.78;97.01
23473;BME280;11909;52.516;13.564;2023-02-13T12:42:03;103088.50;;;6.86;95.83
23473;BME280;11909;52.516;13.564;2023-02-13T12:44:54;103094.38;;;6.90;94.23
23473;BME280;11909;52.516;13.564;2023-02-13T12:47:26;103086.16;;;6.83;93.64
23473;BME280;11909;52.516;13.564;2023-02-13T12:53:13;103074.69;;;6.95;94.46
23473;BME280;11909;52.516;13.564;2023-02-13T12:56:07;103078.22;;;6.88;95.10
23473;BME280;11909;52.516;13.564;2023-02-13T12:58:53;103069.63;;;6.92;95.72
23473;BME280;11909;52.516;13.564;2023-02-13T13:01:42;103074.22;;;6.91;95.31
23473;BME280;11909;52.516;13.564;2023-02-13T13:04:15;103083.09;;;6.93;93.77
23473;BME280;11909;52.516;13.564;2023-02-13T13:07:14;103067.53;;;6.94;93.97
23473;BME280;11909;52.516;13.564;2023-02-13T13:10:17;103065.84;;;6.93;94.62
23473;BME280;11909;52.516;13.564;2023-02-13T13:12:54;103076.78;;;6.93;95.14
23473;BME280;11909;52.516;13.564;2023-02-13T13:15:31;103091.22;;;6.86;94.97
23473;BME280;11909;52.516;13.564;2023-02-13T13:18:20;103084.91;;;6.86;95.07
23473;BME280;11909;52.516;13.564;2023-02-13T13:20:58;103083.03;;;6.86;95.50
23473;BME280;11909;52.516;13.564;2023-02-13T13:23:30;103080.06;;;6.81;95.85
23473;BME280;11909;52.516;13.564;2023-02-13T13:26:00;103065.94;;;6.78;96.49
23473;BME280;11909;52.516;13.564;2023-02-13T13:28:36;103075.66;;;6.87;95.24
23473;BME280;11909;52.516;13.564;2023-02-13T13:31:06;103081.53;;;6.84;94.64
23473;BME280;11909;52.516;13.564;2023-02-13T13:33:35;103084.25;;;6.84;94.28
23473;BME280;11909;52.516;13.564;2023-02-13T13:36:10;103090.75;;;6.83;94.05
23473;BME280;11909;52.516;13.564;2023-02-13T13:38:47;103095.63;;;6.87;91.58